Latest Weather Observations for Tuggeranong

IDN60901

Issued at 6:55 pm EST Thursday 28 August 2014 (issued every 10 minutes, with the page automatically refreshed every 10 minutes)

About weather observations | Map of Canberra area stations | Latest observations for Canberra area | Other Formats
Station Details ID: 070339 Name: TUGGERANONG (ISABELLA PLAINS) AWS Lat: -35.42 Lon: 149.09 Height: 586.7 m
Data from the previous 72 hours. | See also: Recent months at Tuggeranong
Date/Time
EST
Tmp

°C
App
Tmp
°C
Dew
Point
°C
Rel
Hum
%
Delta-T

°C
Wind Press
QNH
hPa
Press
MSL
hPa
Rain
since
9 am
mm
Dir
 
Spd
km/h
Gust
km/h
Spd
kts
Gust
kts
28/06:30pm 11.4 8.3 5.7 68 2.7 E 11 15 6 8 1027.9 - 0.0
28/06:00pm 12.2 9.1 5.6 64 3.2 ENE 11 17 6 9 1027.7 1028.6 0.0
28/05:30pm 12.9 10.5 5.1 59 3.7 ENE 7 11 4 6 1027.4 - 0.0
28/05:00pm 13.3 10.4 4.7 56 4.1 E 9 13 5 7 1027.1 1027.9 0.0
28/04:30pm 13.9 10.3 5.0 55 4.3 E 13 19 7 10 1026.9 - 0.0
28/04:00pm 14.2 10.5 4.5 52 4.6 E 13 17 7 9 1026.8 1027.6 0.0
28/03:30pm 14.4 11.5 4.7 52 4.7 ENE 9 15 5 8 1026.8 - 0.0
28/03:00pm 14.3 11.0 4.3 51 4.7 ENE 11 17 6 9 1026.9 1027.7 0.0
28/02:30pm 13.8 11.3 4.7 54 4.4 ESE 7 11 4 6 1027.1 - 0.0
28/02:00pm 13.5 10.2 4.6 55 4.2 ESE 11 17 6 9 1027.2 1028.0 0.0
28/01:30pm 13.6 10.7 4.5 54 4.3 ESE 9 15 5 8 1027.4 - 0.0
28/01:00pm 13.5 9.7 4.1 53 4.4 ESE 13 22 7 12 1027.6 1028.5 0.0
28/12:30pm 13.3 9.7 5.0 57 4.0 SSW 13 19 7 10 1027.8 - 0.0
28/12:00pm 12.9 9.1 4.1 55 4.1 SSW 13 20 7 11 1028.4 1029.2 0.0
28/11:30am 13.2 9.5 4.4 55 4.2 S 13 20 7 11 1028.8 - 0.0
28/11:00am 11.8 7.1 3.3 56 3.9 S 17 22 9 12 1029.3 1030.2 0.0
28/10:30am 11.7 7.2 4.0 59 3.6 S 17 24 9 13 1029.5 - 0.0
28/10:00am 11.0 6.8 4.0 62 3.2 S 15 20 8 11 1029.7 1030.6 0.0
28/09:30am 9.4 4.7 3.2 65 2.7 S 17 28 9 15 1029.6 - 0.0
28/09:00am 8.8 4.0 2.8 66 2.6 S 17 26 9 14 1029.6 1030.5 0.0
28/08:30am 7.8 3.0 2.7 70 2.2 S 17 24 9 13 1029.6 - 0.0
28/08:00am 6.8 2.9 3.4 79 1.5 S 13 20 7 11 1029.4 1030.3 0.0
28/07:30am 4.1 2.0 4.0 99 0.0 SSW 4 9 2 5 1029.1 - 0.0
28/07:00am 2.2 -0.6 2.1 99 0.0 W 6 9 3 5 1028.8 1029.6 0.0
28/06:30am 0.9 -1.3 0.8 99 0.0 NW 2 7 1 4 1028.8 - 0.0
28/06:00am 1.4 -1.5 1.3 99 0.0 NW 6 6 3 3 1028.4 1029.2 0.0
28/05:30am 1.5 -1.6 1.4 99 0.0 W 7 9 4 5 1028.0 - 0.0
28/05:00am 1.6 -1.3 1.5 99 0.0 NW 6 7 3 4 1027.9 1028.8 0.0
28/04:30am 1.9 -1.1 1.8 99 0.0 W 7 9 4 5 1027.9 - 0.0
28/04:00am 1.4 -1.5 1.3 99 0.0 WSW 6 7 3 4 1027.9 1028.8 0.0
28/03:30am 0.4 -2.7 0.3 99 0.0 W 6 9 3 5 1028.0 - 0.0
28/03:00am 0.9 -1.4 0.6 98 0.1 NNW 2 7 1 4 1028.2 1029.1 0.0
28/02:30am 0.9 -1.4 0.3 96 0.2 W 2 6 1 3 1028.2 - 0.0
28/02:00am 1.6 -1.3 1.2 97 0.2 NW 6 7 3 4 1028.2 1029.1 0.0
28/01:30am 1.5 -0.4 0.8 95 0.3 CALM 0 0 0 0 1028.5 - 0.0
28/01:00am 2.0 0.2 1.3 95 0.3 CALM 0 0 0 0 1028.6 1029.4 0.0
28/12:30am 2.2 0.4 1.3 94 0.4 CALM 0 0 0 0 1028.8 - 0.0
28/12:00am 2.8 1.1 1.8 93 0.4 WSW 0 0 0 0 1028.7 1029.5 0.0
 
Date/Time
EST
Tmp

°C
App
Tmp
°C
Dew
Point
°C
Rel
Hum
%
Delta-T

°C
Wind Press
QNH
hPa
Press
MSL
hPa
Rain
since
9 am
mm
Dir
 
Spd
km/h
Gust
km/h
Spd
kts
Gust
kts
27/11:30pm 3.1 1.4 1.9 92 0.5 CALM 0 0 0 0 1028.7 - 0.0
27/11:00pm 3.4 1.4 2.4 93 0.4 WNW 2 9 1 5 1028.7 1029.5 0.0
27/10:30pm 3.4 1.7 1.8 89 0.7 CALM 0 0 0 0 1028.7 - 0.0
27/10:00pm 3.7 2.0 1.9 88 0.7 CALM 0 0 0 0 1028.6 1029.4 0.0
27/09:30pm 4.9 2.6 2.8 86 0.9 E 4 7 2 4 1028.4 - 0.0
27/09:00pm 5.6 3.0 3.1 84 1.1 NE 6 7 3 4 1028.2 1029.1 0.0
27/08:30pm 5.7 3.4 2.9 82 1.2 S 4 9 2 5 1028.5 - 0.0
27/08:00pm 6.1 3.4 2.7 79 1.4 ESE 6 11 3 6 1028.2 1029.1 0.0
27/07:30pm 7.2 5.0 3.3 76 1.7 ESE 4 7 2 4 1028.4 - 0.0
27/07:00pm 8.2 5.1 3.7 73 2.0 ENE 9 9 5 5 1027.9 1028.8 0.0
27/06:30pm 9.2 6.6 3.4 67 2.6 ESE 6 7 3 4 1027.7 - 0.0
27/06:00pm 9.9 6.8 3.4 64 2.9 ESE 9 13 5 7 1027.4 1028.2 0.0
27/05:30pm 11.0 7.2 3.8 61 3.3 SE 13 19 7 10 1027.1 - 0.0
27/05:00pm 11.2 6.7 4.4 63 3.1 ESE 17 24 9 13 1027.0 1027.8 0.0
27/04:30pm 13.1 8.9 3.7 53 4.4 SE 15 24 8 13 1026.8 - 0.0
27/04:00pm 13.9 9.3 3.7 50 4.8 SE 17 22 9 12 1026.4 1027.3 0.0
27/03:30pm 13.4 8.3 3.2 50 4.7 SE 19 30 10 16 1026.3 - 0.0
27/03:00pm 14.7 10.3 2.6 44 5.5 SE 15 22 8 12 1026.2 1027.1 0.0
27/02:30pm 14.5 9.7 2.4 44 5.5 SE 17 24 9 13 1026.3 - 0.0
27/02:00pm 13.6 8.4 2.2 46 5.1 ESE 19 24 10 13 1026.4 1027.3 0.0
27/01:30pm 14.0 9.5 2.0 44 5.4 SSE 15 24 8 13 1026.6 - 0.0
27/01:00pm 14.3 9.4 1.9 43 5.6 E 17 24 9 13 1026.8 1027.6 0.0
27/12:30pm 13.7 8.1 1.4 43 5.5 SE 20 24 11 13 1027.0 - 0.0
27/12:00pm 14.1 9.6 2.4 45 5.3 SE 15 28 8 15 1027.3 1028.1 0.0
27/11:30am 14.0 10.0 4.9 54 4.4 SSE 15 24 8 13 1027.7 - 0.0
27/11:00am 13.4 9.0 4.8 56 4.1 S 17 37 9 20 1028.1 1029.0 0.0
27/10:30am 12.3 8.5 3.8 56 3.9 S 13 19 7 10 1028.4 - 0.0
27/10:00am 12.0 7.6 5.0 62 3.3 S 17 26 9 14 1028.4 1029.2 0.0
27/09:30am 10.9 6.5 5.0 67 2.8 S 17 26 9 14 1028.4 - 0.0
27/09:00am 9.5 4.6 4.3 70 2.4 SSE 19 26 10 14 1028.4 1029.2 1.8
27/08:30am 9.3 5.2 4.5 72 2.2 S 15 22 8 12 1028.0 - 1.8
27/08:00am 8.8 5.1 4.4 74 2.0 S 13 19 7 10 1027.9 1028.8 1.8
27/07:30am 8.5 4.8 4.7 77 1.7 S 13 20 7 11 1027.6 - 1.8
27/07:00am 8.0 3.9 4.4 78 1.6 S 15 22 8 12 1027.4 1028.2 1.8
27/06:30am 8.5 3.5 4.7 77 1.7 S 20 32 11 17 1027.5 - 1.8
27/06:00am 8.3 3.5 4.5 77 1.7 SSE 19 28 10 15 1027.3 1028.1 1.8
27/05:30am 8.3 3.5 4.5 77 1.7 S 19 32 10 17 1027.1 - 1.8
27/05:00am 8.0 4.3 4.6 79 1.5 S 13 19 7 10 1027.1 1027.9 1.8
27/04:30am 8.0 3.9 4.4 78 1.6 S 15 24 8 13 1026.9 - 1.8
27/04:00am 7.8 3.7 4.4 79 1.5 SSE 15 20 8 11 1026.9 1027.7 1.8
27/03:30am 7.8 3.6 4.0 77 1.7 S 15 24 8 13 1026.9 - 1.8
27/03:00am 7.9 3.7 3.8 75 1.8 SSE 15 20 8 11 1027.1 1027.9 1.8
27/02:30am 7.5 4.4 3.7 77 1.7 SE 9 13 5 7 1027.4 - 1.8
27/02:00am 8.4 4.3 4.2 75 1.9 SSE 15 20 8 11 1027.4 1028.2 1.8
27/01:30am 8.5 5.2 4.5 76 1.8 SSE 11 17 6 9 1027.6 - 1.8
27/01:00am 8.6 5.3 4.8 77 1.7 S 11 17 6 9 1027.6 1028.5 1.8
27/12:30am 8.9 5.7 4.9 76 1.8 SSE 11 17 6 9 1027.6 - 1.8
27/12:00am 9.5 6.1 5.7 77 1.8 SSE 13 19 7 10 1027.6 1028.5 1.8
 
Date/Time
EST
Tmp

°C
App
Tmp
°C
Dew
Point
°C
Rel
Hum
%
Delta-T

°C
Wind Press
QNH
hPa
Press
MSL
hPa
Rain
since
9 am
mm
Dir
 
Spd
km/h
Gust
km/h
Spd
kts
Gust
kts
26/11:30pm 9.4 6.5 6.5 82 1.4 SSE 11 17 6 9 1027.5 - 1.8
26/11:00pm 9.2 5.9 6.6 84 1.2 SSE 13 19 7 10 1027.4 1028.2 1.8
26/10:30pm 9.3 6.5 6.9 85 1.2 S 11 19 6 10 1027.4 - 1.8
26/10:00pm 9.2 7.4 7.2 87 1.0 SE 6 11 3 6 1027.6 1028.5 1.8
26/09:30pm 9.7 6.1 6.6 81 1.5 SSE 15 24 8 13 1027.7 - 1.8
26/09:00pm 10.0 6.9 5.6 74 2.1 SE 11 17 6 9 1027.6 1028.5 1.8
26/08:30pm 9.5 6.3 4.9 73 2.1 SE 11 15 6 8 1027.5 - 1.8
26/08:00pm 10.2 6.7 5.6 73 2.2 SSE 13 17 7 9 1027.4 1028.2 1.8
26/07:30pm 10.5 7.1 6.1 74 2.1 SE 13 20 7 11 1027.0 - 1.8
26/07:00pm 10.5 6.8 6.3 75 2.0 SSE 15 20 8 11 1026.9 1027.7 1.8
26/06:30pm 10.5 7.6 6.5 76 1.9 SSE 11 19 6 10 1026.4 - 1.8
26/06:00pm 10.5 8.0 6.6 77 1.9 SSE 9 13 5 7 1026.1 1027.0 1.8
26/05:30pm 10.4 8.0 6.9 79 1.7 S 9 11 5 6 1025.8 - 1.8
26/05:00pm 10.7 8.3 7.2 79 1.7 SE 9 17 5 9 1025.6 1026.4 1.8
26/04:30pm 11.0 7.7 7.9 81 1.6 ESE 15 26 8 14 1025.6 - 1.8
26/04:00pm 10.5 8.7 9.4 93 0.6 E 9 15 5 8 1025.6 1026.4 1.8
26/03:30pm 10.3 6.3 8.4 88 1.0 E 19 32 10 17 1025.6 - 1.6
26/03:00pm 11.3 9.0 8.9 85 1.2 E 11 15 6 8 1025.4 1026.2 0.4
26/02:30pm 11.7 8.1 8.2 79 1.8 ESE 17 28 9 15 1025.3 - 0.2
26/02:00pm 11.8 7.0 7.5 75 2.1 SE 22 32 12 17 1025.4 1026.2 0.0
26/01:30pm 12.8 8.1 6.2 64 3.2 ESE 20 33 11 18 1025.2 - 0.0
26/01:00pm 12.9 7.4 5.8 62 3.4 ESE 24 33 13 18 1025.4 1026.2 0.0
26/12:30pm 13.2 8.2 6.3 63 3.4 ESE 22 37 12 20 1025.6 - 0.0
26/12:00pm 12.4 8.0 7.3 71 2.5 SE 20 30 11 16 1025.9 1026.7 0.0
26/11:30am 12.2 8.3 7.1 71 2.5 ESE 17 30 9 16 1026.1 - 0.0
26/11:00am 11.7 6.8 6.8 72 2.4 ESE 22 32 12 17 1026.3 1027.2 0.0
26/10:30am 12.1 8.1 6.6 69 2.7 SE 17 28 9 15 1026.3 - 0.0
26/10:00am 11.8 7.2 6.5 70 2.6 SE 20 33 11 18 1026.6 1027.4 0.0
26/09:30am 11.0 6.9 6.0 71 2.4 SE 17 26 9 14 1026.6 - 0.0
26/09:00am 10.3 6.9 5.9 74 2.1 SSE 13 20 7 11 1026.4 1027.3 13.8
26/08:30am 9.7 6.0 6.1 78 1.7 SSE 15 24 8 13 1026.6 - 13.8
26/08:00am 9.8 6.1 6.2 78 1.7 SE 15 26 8 14 1026.3 1027.2 13.8
26/07:30am 9.0 6.7 7.6 91 0.7 ESE 9 15 5 8 1026.0 - 13.8
26/07:00am 9.2 6.4 7.0 86 1.1 SE 11 13 6 7 1025.7 1026.5 13.8
26/06:30am 9.2 6.8 7.0 86 1.1 SE 9 19 5 10 1025.2 - 13.8
26/06:00am 9.1 6.9 7.7 91 0.7 SE 9 13 5 7 1024.9 1025.7 13.8
26/05:30am 8.7 6.5 7.8 94 0.4 SE 9 17 5 9 1024.4 - 13.8
26/05:00am 9.0 5.9 7.3 89 0.8 SSE 13 17 7 9 1024.4 1025.2 13.6
26/04:30am 8.9 5.4 7.0 88 0.9 SSE 15 22 8 12 1024.2 - 13.6
26/04:00am 8.8 5.2 6.9 88 0.9 SSE 15 20 8 11 1024.3 1025.1 13.6
26/03:30am 8.5 5.3 6.8 89 0.8 S 13 19 7 10 1024.2 - 13.6
26/03:00am 8.7 4.3 6.5 86 1.0 S 19 32 10 17 1024.2 1025.0 13.2
26/02:30am 8.3 5.0 6.4 88 0.9 S 13 19 7 10 1024.3 - 13.0
26/02:00am 7.9 5.4 6.4 90 0.7 SSW 9 13 5 7 1024.3 1025.1 12.8
26/01:30am 8.3 3.7 5.8 84 1.2 S 19 28 10 15 1024.6 - 12.6
26/01:00am 8.3 4.6 6.4 88 0.9 S 15 24 8 13 1025.0 1025.8 12.6
26/12:30am 8.3 5.0 6.3 87 0.9 S 13 20 7 11 1025.2 - 12.6
26/12:00am 7.7 4.0 6.2 90 0.7 SSW 15 20 8 11 1025.3 1026.1 12.6
 
Date/Time
EST
Tmp

°C
App
Tmp
°C
Dew
Point
°C
Rel
Hum
%
Delta-T

°C
Wind Press
QNH
hPa
Press
MSL
hPa
Rain
since
9 am
mm
Dir
 
Spd
km/h
Gust
km/h
Spd
kts
Gust
kts
25/11:30pm 7.5 4.1 6.1 91 0.7 SSW 13 20 7 11 1025.4 - 12.6
25/11:00pm 7.4 5.1 5.9 90 0.7 S 7 11 4 6 1025.5 1026.3 12.6
25/10:30pm 7.2 4.9 5.8 91 0.7 S 7 13 4 7 1025.7 - 12.6
25/10:00pm 7.2 4.2 6.1 93 0.5 S 11 17 6 9 1025.9 1026.7 12.6
25/09:30pm 7.4 4.9 6.5 94 0.4 S 9 15 5 8 1026.1 - 12.4
25/09:00pm 7.7 4.4 6.2 90 0.7 S 13 17 7 9 1026.4 1027.3 11.8
25/08:30pm 8.2 6.4 8.1 99 0.0 SSW 7 13 4 7 1026.3 - 11.2
25/08:00pm 8.1 6.7 7.3 95 0.4 ESE 4 9 2 5 1026.3 1027.2 9.0
25/07:30pm 8.5 6.3 7.9 96 0.3 SSE 9 13 5 7 1026.0 - 6.0
25/07:00pm 8.8 6.2 7.7 93 0.5 S 11 13 6 7 1025.4 1026.2 4.0

Latest Capital City Observations: Canberra | Sydney | Melbourne | Brisbane | Adelaide | Perth | Hobart | Darwin

Other Formats:

Comma delimited format used in spreadsheet applications
http://www.bom.gov.au/fwo/IDN60903/IDN60903.94925.axf

JavaScript Object Notation format (JSON) in row-major order
http://www.bom.gov.au/fwo/IDN60903/IDN60903.94925.json